createdAt,value
2022-08-26T19:38:24.169Z,20.94
2022-08-26T19:41:37.633Z,20.83
2022-08-26T19:44:58.986Z,20.74
2022-08-26T19:48:02.901Z,20.71
2022-08-26T19:51:06.225Z,20.65
2022-08-26T19:54:09.170Z,20.47
2022-08-26T19:57:12.322Z,20.52
2022-08-26T20:00:18.586Z,20.49
2022-08-26T20:03:23.858Z,20.48
2022-08-26T20:06:26.576Z,20.39
2022-08-26T20:09:30.790Z,20.37
2022-08-26T20:12:35.641Z,20.29
2022-08-26T20:15:38.588Z,20.24
2022-08-26T20:19:01.659Z,20.19
2022-08-26T20:22:05.354Z,20.18
2022-08-26T20:25:08.731Z,20.16
2022-08-26T20:28:12.640Z,20.11
2022-08-26T20:31:15.444Z,20.02
2022-08-26T20:34:19.870Z,20.03
2022-08-26T20:37:22.558Z,19.99
2022-08-26T20:40:25.851Z,19.86
2022-08-26T20:43:28.513Z,19.93
2022-08-26T20:46:31.817Z,19.86
2022-08-26T20:49:35.369Z,19.88
2022-08-26T20:52:38.266Z,19.85
2022-08-26T20:55:40.957Z,19.78
2022-08-26T20:58:43.938Z,19.78
2022-08-26T21:01:47.968Z,19.76
2022-08-26T21:04:51.010Z,19.82
2022-08-26T21:07:53.854Z,19.82
2022-08-26T21:10:57.344Z,19.80
2022-08-26T21:14:16.630Z,19.78
2022-08-26T21:17:20.192Z,19.78
2022-08-26T21:20:24.095Z,19.77
2022-08-26T21:23:29.286Z,19.72
2022-08-26T21:26:32.404Z,19.71
2022-08-26T21:29:36.656Z,19.75
2022-08-26T21:32:39.862Z,19.76
2022-08-26T21:35:51.701Z,19.81
2022-08-26T21:38:59.898Z,19.85
2022-08-26T21:42:02.958Z,19.87
2022-08-26T21:45:06.694Z,19.74
2022-08-26T21:48:10.302Z,19.85
2022-08-26T21:51:15.223Z,20.19
2022-08-26T21:54:18.314Z,20.15
2022-08-26T21:57:20.986Z,20.52
2022-08-26T22:00:23.891Z,20.49
2022-08-26T22:03:27.936Z,20.48
2022-08-26T22:06:39.045Z,20.49
2022-08-26T22:09:41.982Z,20.31
2022-08-26T22:12:47.602Z,20.21
2022-08-26T22:15:50.694Z,20.09
2022-08-26T22:18:53.377Z,20.07
2022-08-26T22:21:56.887Z,19.98
2022-08-26T22:24:59.962Z,19.91
2022-08-26T22:28:03.211Z,19.90
2022-08-26T22:31:11.365Z,19.77
2022-08-26T22:34:17.418Z,19.78
2022-08-26T22:37:20.069Z,19.70
2022-08-26T22:40:23.640Z,19.76
2022-08-26T22:43:28.487Z,19.77
2022-08-26T22:46:32.972Z,19.86
2022-08-26T22:49:35.481Z,19.94
2022-08-26T22:52:38.402Z,19.84
2022-08-26T22:55:41.617Z,19.74
2022-08-26T22:58:45.073Z,19.75
2022-08-26T23:01:47.780Z,19.69
2022-08-26T23:04:51.233Z,19.70
2022-08-26T23:07:54.066Z,19.60
2022-08-26T23:10:56.982Z,19.52
2022-08-26T23:14:02.905Z,19.45
2022-08-26T23:17:14.245Z,19.59
2022-08-26T23:20:18.104Z,19.51
2022-08-26T23:23:21.109Z,19.77
2022-08-26T23:26:23.864Z,19.66
2022-08-26T23:29:27.524Z,19.58
2022-08-26T23:32:30.323Z,19.69
2022-08-26T23:35:33.283Z,20.07
2022-08-26T23:38:35.904Z,19.86
2022-08-26T23:41:40.155Z,19.66
2022-08-26T23:44:42.779Z,19.48
2022-08-26T23:47:46.154Z,19.41
2022-08-26T23:51:07.725Z,19.31
2022-08-26T23:54:10.975Z,19.28
2022-08-26T23:57:13.544Z,19.15
